sensor_id;sensor_type;location;lat;lon;timestamp;P1;durP1;ratioP1;P2;durP2;ratioP2
23206;SDS011;11773;52.570;13.052;2022-12-05T00:01:42;13.78;;;8.68;;
23206;SDS011;11773;52.570;13.052;2022-12-05T00:04:12;27.53;;;16.57;;
23206;SDS011;11773;52.570;13.052;2022-12-05T00:06:42;13.43;;;9.03;;
23206;SDS011;11773;52.570;13.052;2022-12-05T00:09:12;12.23;;;8.47;;
23206;SDS011;11773;52.570;13.052;2022-12-05T00:11:42;11.10;;;7.00;;
23206;SDS011;11773;52.570;13.052;2022-12-05T00:14:13;18.70;;;10.83;;
23206;SDS011;11773;52.570;13.052;2022-12-05T00:16:42;13.20;;;7.90;;
23206;SDS011;11773;52.570;13.052;2022-12-05T00:19:13;11.30;;;7.23;;
23206;SDS011;11773;52.570;13.052;2022-12-05T00:21:43;12.20;;;7.40;;
23206;SDS011;11773;52.570;13.052;2022-12-05T00:24:13;14.30;;;8.53;;
23206;SDS011;11773;52.570;13.052;2022-12-05T00:26:43;21.70;;;12.63;;
23206;SDS011;11773;52.570;13.052;2022-12-05T00:29:13;14.23;;;8.77;;
23206;SDS011;11773;52.570;13.052;2022-12-05T00:31:42;9.13;;;5.60;;
23206;SDS011;11773;52.570;13.052;2022-12-05T00:34:12;7.40;;;4.93;;
23206;SDS011;11773;52.570;13.052;2022-12-05T00:36:41;9.93;;;6.10;;
23206;SDS011;11773;52.570;13.052;2022-12-05T00:39:11;10.77;;;7.10;;
23206;SDS011;11773;52.570;13.052;2022-12-05T00:41:41;8.70;;;5.57;;
23206;SDS011;11773;52.570;13.052;2022-12-05T00:44:11;11.97;;;6.90;;
23206;SDS011;11773;52.570;13.052;2022-12-05T00:46:42;9.17;;;5.70;;
23206;SDS011;11773;52.570;13.052;2022-12-05T00:49:11;10.93;;;5.93;;
23206;SDS011;11773;52.570;13.052;2022-12-05T00:51:41;8.37;;;5.60;;
23206;SDS011;11773;52.570;13.052;2022-12-05T00:54:12;8.87;;;5.80;;
23206;SDS011;11773;52.570;13.052;2022-12-05T00:56:43;15.50;;;8.90;;
23206;SDS011;11773;52.570;13.052;2022-12-05T00:59:17;10.70;;;6.43;;
23206;SDS011;11773;52.570;13.052;2022-12-05T01:01:48;11.00;;;6.60;;
23206;SDS011;11773;52.570;13.052;2022-12-05T01:04:24;10.43;;;6.83;;
23206;SDS011;11773;52.570;13.052;2022-12-05T01:06:55;14.23;;;7.83;;
23206;SDS011;11773;52.570;13.052;2022-12-05T01:09:25;8.83;;;5.80;;
23206;SDS011;11773;52.570;13.052;2022-12-05T01:11:55;9.23;;;5.90;;
23206;SDS011;11773;52.570;13.052;2022-12-05T01:14:25;11.93;;;7.10;;
23206;SDS011;11773;52.570;13.052;2022-12-05T01:16:55;12.53;;;7.53;;
23206;SDS011;11773;52.570;13.052;2022-12-05T01:19:26;16.87;;;10.50;;
23206;SDS011;11773;52.570;13.052;2022-12-05T01:21:58;10.13;;;7.40;;
23206;SDS011;11773;52.570;13.052;2022-12-05T01:24:28;16.73;;;10.33;;
23206;SDS011;11773;52.570;13.052;2022-12-05T01:26:58;13.50;;;7.90;;
23206;SDS011;11773;52.570;13.052;2022-12-05T01:29:27;15.20;;;9.30;;
23206;SDS011;11773;52.570;13.052;2022-12-05T01:31:57;13.23;;;8.27;;
23206;SDS011;11773;52.570;13.052;2022-12-05T01:34:26;11.13;;;7.17;;
23206;SDS011;11773;52.570;13.052;2022-12-05T01:36:56;16.60;;;10.53;;
23206;SDS011;11773;52.570;13.052;2022-12-05T01:39:25;13.93;;;8.03;;
23206;SDS011;11773;52.570;13.052;2022-12-05T01:41:55;9.87;;;6.70;;
23206;SDS011;11773;52.570;13.052;2022-12-05T01:46:58;13.30;;;8.47;;
23206;SDS011;11773;52.570;13.052;2022-12-05T01:49:48;7.77;;;5.37;;
23206;SDS011;11773;52.570;13.052;2022-12-05T01:52:09;9.10;;;5.70;;
23206;SDS011;11773;52.570;13.052;2022-12-05T01:54:42;8.87;;;5.60;;
23206;SDS011;11773;52.570;13.052;2022-12-05T01:57:14;6.70;;;5.03;;
23206;SDS011;11773;52.570;13.052;2022-12-05T01:59:47;7.63;;;5.33;;
23206;SDS011;11773;52.570;13.052;2022-12-05T02:02:19;12.65;;;7.78;;
23206;SDS011;11773;52.570;13.052;2022-12-05T02:04:53;15.47;;;9.80;;
23206;SDS011;11773;52.570;13.052;2022-12-05T02:07:42;14.67;;;8.83;;
23206;SDS011;11773;52.570;13.052;2022-12-05T02:10:14;16.47;;;9.60;;
23206;SDS011;11773;52.570;13.052;2022-12-05T02:12:44;15.57;;;9.70;;
23206;SDS011;11773;52.570;13.052;2022-12-05T02:15:20;23.80;;;15.00;;
23206;SDS011;11773;52.570;13.052;2022-12-05T02:18:12;16.67;;;10.80;;
23206;SDS011;11773;52.570;13.052;2022-12-05T02:21:14;17.73;;;11.33;;
23206;SDS011;11773;52.570;13.052;2022-12-05T02:27:08;16.50;;;10.03;;
23206;SDS011;11773;52.570;13.052;2022-12-05T02:30:15;21.57;;;12.10;;
23206;SDS011;11773;52.570;13.052;2022-12-05T02:32:55;14.33;;;8.53;;
23206;SDS011;11773;52.570;13.052;2022-12-05T02:38:45;12.33;;;7.40;;
23206;SDS011;11773;52.570;13.052;2022-12-05T02:44:15;10.73;;;6.93;;
23206;SDS011;11773;52.570;13.052;2022-12-05T02:46:50;6.87;;;5.10;;
23206;SDS011;11773;52.570;13.052;2022-12-05T02:49:23;9.17;;;5.60;;
23206;SDS011;11773;52.570;13.052;2022-12-05T02:51:57;12.07;;;7.60;;
23206;SDS011;11773;52.570;13.052;2022-12-05T02:54:32;9.03;;;5.57;;
23206;SDS011;11773;52.570;13.052;2022-12-05T02:57:04;12.97;;;6.87;;
23206;SDS011;11773;52.570;13.052;2022-12-05T02:59:36;11.63;;;7.03;;
23206;SDS011;11773;52.570;13.052;2022-12-05T03:02:20;16.23;;;9.47;;
23206;SDS011;11773;52.570;13.052;2022-12-05T03:05:03;13.40;;;8.40;;
23206;SDS011;11773;52.570;13.052;2022-12-05T03:07:56;8.30;;;5.80;;
23206;SDS011;11773;52.570;13.052;2022-12-05T03:10:32;10.37;;;5.93;;
23206;SDS011;11773;52.570;13.052;2022-12-05T03:13:05;15.03;;;9.53;;
23206;SDS011;11773;52.570;13.052;2022-12-05T03:15:39;12.90;;;8.67;;
23206;SDS011;11773;52.570;13.052;2022-12-05T03:18:21;10.43;;;7.20;;
23206;SDS011;11773;52.570;13.052;2022-12-05T03:21:19;10.33;;;6.40;;
23206;SDS011;11773;52.570;13.052;2022-12-05T03:23:46;9.00;;;6.13;;
23206;SDS011;11773;52.570;13.052;2022-12-05T03:29:21;7.60;;;5.50;;
23206;SDS011;11773;52.570;13.052;2022-12-05T03:32:06;11.13;;;7.50;;
23206;SDS011;11773;52.570;13.052;2022-12-05T03:34:47;19.13;;;12.37;;
23206;SDS011;11773;52.570;13.052;2022-12-05T03:37:36;13.77;;;7.90;;
23206;SDS011;11773;52.570;13.052;2022-12-05T03:40:22;14.07;;;8.85;;
23206;SDS011;11773;52.570;13.052;2022-12-05T03:43:19;13.83;;;9.17;;
23206;SDS011;11773;52.570;13.052;2022-12-05T03:49:27;10.67;;;7.33;;
23206;SDS011;11773;52.570;13.052;2022-12-05T03:52:06;12.13;;;8.50;;
23206;SDS011;11773;52.570;13.052;2022-12-05T03:54:42;12.53;;;7.93;;
23206;SDS011;11773;52.570;13.052;2022-12-05T03:57:32;8.33;;;6.23;;
23206;SDS011;11773;52.570;13.052;2022-12-05T04:00:12;8.80;;;6.73;;
23206;SDS011;11773;52.570;13.052;2022-12-05T04:02:49;8.47;;;5.57;;
23206;SDS011;11773;52.570;13.052;2022-12-05T04:05:41;10.90;;;6.70;;
23206;SDS011;11773;52.570;13.052;2022-12-05T04:08:23;8.03;;;5.33;;
23206;SDS011;11773;52.570;13.052;2022-12-05T04:11:17;9.77;;;6.60;;
23206;SDS011;11773;52.570;13.052;2022-12-05T04:13:57;10.17;;;6.50;;
23206;SDS011;11773;52.570;13.052;2022-12-05T04:16:30;7.97;;;5.53;;
23206;SDS011;11773;52.570;13.052;2022-12-05T04:19:24;11.03;;;6.80;;
23206;SDS011;11773;52.570;13.052;2022-12-05T04:22:31;6.67;;;4.53;;
23206;SDS011;11773;52.570;13.052;2022-12-05T04:25:04;6.07;;;4.23;;
23206;SDS011;11773;52.570;13.052;2022-12-05T04:28:09;7.33;;;5.40;;
23206;SDS011;11773;52.570;13.052;2022-12-05T04:31:05;5.97;;;4.60;;
23206;SDS011;11773;52.570;13.052;2022-12-05T04:34:00;4.83;;;3.77;;
23206;SDS011;11773;52.570;13.052;2022-12-05T04:36:44;8.60;;;6.10;;
23206;SDS011;11773;52.570;13.052;2022-12-05T04:39:20;9.60;;;6.50;;
23206;SDS011;11773;52.570;13.052;2022-12-05T04:42:07;6.97;;;5.53;;
23206;SDS011;11773;52.570;13.052;2022-12-05T04:44:43;7.10;;;5.03;;
23206;SDS011;11773;52.570;13.052;2022-12-05T04:47:20;5.00;;;4.07;;
23206;SDS011;11773;52.570;13.052;2022-12-05T04:49:53;9.20;;;6.80;;
23206;SDS011;11773;52.570;13.052;2022-12-05T04:52:26;7.87;;;5.70;;
23206;SDS011;11773;52.570;13.052;2022-12-05T04:55:00;8.13;;;5.67;;
23206;SDS011;11773;52.570;13.052;2022-12-05T04:57:47;12.80;;;8.83;;
23206;SDS011;11773;52.570;13.052;2022-12-05T05:00:34;9.73;;;6.60;;
23206;SDS011;11773;52.570;13.052;2022-12-05T05:03:21;13.47;;;9.27;;
23206;SDS011;11773;52.570;13.052;2022-12-05T05:05:53;13.63;;;8.83;;
23206;SDS011;11773;52.570;13.052;2022-12-05T05:08:26;11.77;;;8.43;;
23206;SDS011;11773;52.570;13.052;2022-12-05T05:13:48;10.10;;;7.50;;
23206;SDS011;11773;52.570;13.052;2022-12-05T05:16:20;7.73;;;5.53;;
23206;SDS011;11773;52.570;13.052;2022-12-05T05:18:52;8.20;;;5.57;;
23206;SDS011;11773;52.570;13.052;2022-12-05T05:21:23;8.83;;;6.70;;
23206;SDS011;11773;52.570;13.052;2022-12-05T05:24:02;10.67;;;6.93;;
23206;SDS011;11773;52.570;13.052;2022-12-05T05:26:34;11.30;;;7.50;;
23206;SDS011;11773;52.570;13.052;2022-12-05T05:29:08;10.53;;;7.50;;
23206;SDS011;11773;52.570;13.052;2022-12-05T05:31:39;9.17;;;6.40;;
23206;SDS011;11773;52.570;13.052;2022-12-05T05:34:10;6.03;;;4.60;;
23206;SDS011;11773;52.570;13.052;2022-12-05T05:36:42;13.53;;;9.27;;
23206;SDS011;11773;52.570;13.052;2022-12-05T05:39:12;15.13;;;9.37;;
23206;SDS011;11773;52.570;13.052;2022-12-05T05:41:42;12.67;;;7.97;;
23206;SDS011;11773;52.570;13.052;2022-12-05T05:44:12;8.60;;;5.87;;
23206;SDS011;11773;52.570;13.052;2022-12-05T05:46:41;7.53;;;5.37;;
23206;SDS011;11773;52.570;13.052;2022-12-05T05:49:11;8.10;;;5.73;;
23206;SDS011;11773;52.570;13.052;2022-12-05T05:51:40;8.90;;;6.60;;
23206;SDS011;11773;52.570;13.052;2022-12-05T05:54:10;8.00;;;5.53;;
23206;SDS011;11773;52.570;13.052;2022-12-05T05:56:39;11.27;;;7.47;;
23206;SDS011;11773;52.570;13.052;2022-12-05T05:59:09;8.97;;;6.63;;
23206;SDS011;11773;52.570;13.052;2022-12-05T06:01:38;11.73;;;8.83;;
23206;SDS011;11773;52.570;13.052;2022-12-05T06:04:08;10.50;;;7.17;;
23206;SDS011;11773;52.570;13.052;2022-12-05T06:06:37;8.37;;;5.70;;
23206;SDS011;11773;52.570;13.052;2022-12-05T06:09:08;8.13;;;5.57;;
23206;SDS011;11773;52.570;13.052;2022-12-05T06:11:37;7.63;;;5.60;;
23206;SDS011;11773;52.570;13.052;2022-12-05T06:14:07;10.13;;;7.17;;
23206;SDS011;11773;52.570;13.052;2022-12-05T06:16:36;7.60;;;4.90;;
23206;SDS011;11773;52.570;13.052;2022-12-05T06:19:06;7.20;;;5.07;;
23206;SDS011;11773;52.570;13.052;2022-12-05T06:21:35;8.87;;;6.77;;
23206;SDS011;11773;52.570;13.052;2022-12-05T06:24:05;8.30;;;6.57;;
23206;SDS011;11773;52.570;13.052;2022-12-05T06:26:35;9.07;;;5.80;;
23206;SDS011;11773;52.570;13.052;2022-12-05T06:29:05;8.43;;;5.87;;
23206;SDS011;11773;52.570;13.052;2022-12-05T06:31:34;6.37;;;5.23;;
23206;SDS011;11773;52.570;13.052;2022-12-05T06:34:04;6.83;;;5.20;;
23206;SDS011;11773;52.570;13.052;2022-12-05T06:36:33;6.73;;;5.10;;
23206;SDS011;11773;52.570;13.052;2022-12-05T06:39:03;7.47;;;5.20;;
23206;SDS011;11773;52.570;13.052;2022-12-05T06:41:33;6.13;;;4.80;;
23206;SDS011;11773;52.570;13.052;2022-12-05T06:44:02;4.60;;;3.80;;
23206;SDS011;11773;52.570;13.052;2022-12-05T06:46:32;5.27;;;4.00;;
23206;SDS011;11773;52.570;13.052;2022-12-05T06:49:01;6.10;;;4.10;;
23206;SDS011;11773;52.570;13.052;2022-12-05T06:51:31;6.17;;;4.10;;
23206;SDS011;11773;52.570;13.052;2022-12-05T06:54:00;5.43;;;4.50;;
23206;SDS011;11773;52.570;13.052;2022-12-05T06:56:30;5.57;;;4.03;;
23206;SDS011;11773;52.570;13.052;2022-12-05T06:59:00;3.70;;;3.30;;
23206;SDS011;11773;52.570;13.052;2022-12-05T07:01:29;4.17;;;3.03;;
23206;SDS011;11773;52.570;13.052;2022-12-05T07:04:12;5.57;;;4.20;;
23206;SDS011;11773;52.570;13.052;2022-12-05T07:06:52;6.57;;;4.50;;
23206;SDS011;11773;52.570;13.052;2022-12-05T07:09:23;6.00;;;4.43;;
23206;SDS011;11773;52.570;13.052;2022-12-05T07:11:55;5.77;;;4.53;;
23206;SDS011;11773;52.570;13.052;2022-12-05T07:14:25;3.83;;;3.20;;
23206;SDS011;11773;52.570;13.052;2022-12-05T07:16:56;4.83;;;4.07;;
23206;SDS011;11773;52.570;13.052;2022-12-05T07:19:25;3.33;;;2.90;;
23206;SDS011;11773;52.570;13.052;2022-12-05T07:21:55;3.40;;;2.97;;
23206;SDS011;11773;52.570;13.052;2022-12-05T07:24:24;3.47;;;2.90;;
23206;SDS011;11773;52.570;13.052;2022-12-05T07:26:54;4.53;;;3.40;;
23206;SDS011;11773;52.570;13.052;2022-12-05T07:29:24;6.47;;;5.07;;
23206;SDS011;11773;52.570;13.052;2022-12-05T07:31:53;5.33;;;3.93;;
23206;SDS011;11773;52.570;13.052;2022-12-05T07:34:23;6.00;;;4.70;;
23206;SDS011;11773;52.570;13.052;2022-12-05T07:36:52;4.57;;;3.83;;
23206;SDS011;11773;52.570;13.052;2022-12-05T07:39:22;4.50;;;4.00;;
23206;SDS011;11773;52.570;13.052;2022-12-05T07:41:51;4.17;;;3.60;;
23206;SDS011;11773;52.570;13.052;2022-12-05T07:44:21;3.83;;;3.40;;
23206;SDS011;11773;52.570;13.052;2022-12-05T07:46:50;3.47;;;2.77;;
23206;SDS011;11773;52.570;13.052;2022-12-05T07:49:19;4.63;;;3.23;;
23206;SDS011;11773;52.570;13.052;2022-12-05T07:51:49;2.70;;;2.30;;
23206;SDS011;11773;52.570;13.052;2022-12-05T07:54:19;3.30;;;2.83;;
23206;SDS011;11773;52.570;13.052;2022-12-05T07:56:48;3.37;;;2.90;;
23206;SDS011;11773;52.570;13.052;2022-12-05T07:59:18;4.37;;;3.10;;
23206;SDS011;11773;52.570;13.052;2022-12-05T08:01:47;3.40;;;2.80;;
23206;SDS011;11773;52.570;13.052;2022-12-05T08:04:17;3.97;;;3.47;;
23206;SDS011;11773;52.570;13.052;2022-12-05T08:06:47;4.83;;;3.93;;
23206;SDS011;11773;52.570;13.052;2022-12-05T08:09:16;5.03;;;3.90;;
23206;SDS011;11773;52.570;13.052;2022-12-05T08:11:46;3.47;;;3.03;;
23206;SDS011;11773;52.570;13.052;2022-12-05T08:14:17;3.47;;;3.03;;
23206;SDS011;11773;52.570;13.052;2022-12-05T08:16:47;4.53;;;3.50;;
23206;SDS011;11773;52.570;13.052;2022-12-05T08:19:17;4.40;;;3.80;;
23206;SDS011;11773;52.570;13.052;2022-12-05T08:21:46;4.90;;;4.00;;
23206;SDS011;11773;52.570;13.052;2022-12-05T08:24:17;5.80;;;5.03;;
23206;SDS011;11773;52.570;13.052;2022-12-05T08:26:47;4.40;;;3.90;;
23206;SDS011;11773;52.570;13.052;2022-12-05T08:29:18;4.43;;;3.77;;
23206;SDS011;11773;52.570;13.052;2022-12-05T08:31:49;3.10;;;2.80;;
23206;SDS011;11773;52.570;13.052;2022-12-05T08:34:19;4.83;;;3.90;;
23206;SDS011;11773;52.570;13.052;2022-12-05T08:36:49;6.20;;;4.50;;
23206;SDS011;11773;52.570;13.052;2022-12-05T08:39:18;4.53;;;3.83;;
23206;SDS011;11773;52.570;13.052;2022-12-05T08:41:48;5.20;;;4.13;;
23206;SDS011;11773;52.570;13.052;2022-12-05T08:44:19;4.93;;;4.33;;
23206;SDS011;11773;52.570;13.052;2022-12-05T08:46:48;5.10;;;4.03;;
23206;SDS011;11773;52.570;13.052;2022-12-05T08:49:18;7.57;;;5.70;;
23206;SDS011;11773;52.570;13.052;2022-12-05T08:51:48;8.20;;;5.93;;
23206;SDS011;11773;52.570;13.052;2022-12-05T08:54:17;7.40;;;5.33;;
23206;SDS011;11773;52.570;13.052;2022-12-05T08:56:49;5.60;;;4.37;;
23206;SDS011;11773;52.570;13.052;2022-12-05T08:59:18;4.63;;;4.03;;
23206;SDS011;11773;52.570;13.052;2022-12-05T09:01:48;5.43;;;4.10;;
23206;SDS011;11773;52.570;13.052;2022-12-05T09:04:18;5.93;;;4.40;;
23206;SDS011;11773;52.570;13.052;2022-12-05T09:06:47;6.33;;;4.37;;
23206;SDS011;11773;52.570;13.052;2022-12-05T09:09:17;4.60;;;3.60;;
23206;SDS011;11773;52.570;13.052;2022-12-05T09:11:47;3.10;;;2.40;;
23206;SDS011;11773;52.570;13.052;2022-12-05T09:14:17;5.43;;;4.40;;
23206;SDS011;11773;52.570;13.052;2022-12-05T09:16:46;7.87;;;5.50;;
23206;SDS011;11773;52.570;13.052;2022-12-05T09:19:17;5.67;;;4.53;;
23206;SDS011;11773;52.570;13.052;2022-12-05T09:21:49;4.17;;;3.60;;
23206;SDS011;11773;52.570;13.052;2022-12-05T09:24:19;3.53;;;3.10;;
23206;SDS011;11773;52.570;13.052;2022-12-05T09:26:49;3.87;;;3.27;;
23206;SDS011;11773;52.570;13.052;2022-12-05T09:29:18;6.50;;;5.10;;
23206;SDS011;11773;52.570;13.052;2022-12-05T09:31:50;5.27;;;4.63;;
23206;SDS011;11773;52.570;13.052;2022-12-05T09:34:21;5.40;;;3.93;;
23206;SDS011;11773;52.570;13.052;2022-12-05T09:36:51;5.07;;;3.90;;
23206;SDS011;11773;52.570;13.052;2022-12-05T09:39:23;6.00;;;4.10;;
23206;SDS011;11773;52.570;13.052;2022-12-05T09:47:54;7.17;;;5.00;;
23206;SDS011;11773;52.570;13.052;2022-12-05T09:50:40;4.83;;;4.33;;
23206;SDS011;11773;52.570;13.052;2022-12-05T09:53:33;5.73;;;4.07;;
23206;SDS011;11773;52.570;13.052;2022-12-05T09:58:57;5.43;;;4.00;;
23206;SDS011;11773;52.570;13.052;2022-12-05T10:04:16;5.13;;;4.37;;
23206;SDS011;11773;52.570;13.052;2022-12-05T10:07:21;5.03;;;4.33;;
23206;SDS011;11773;52.570;13.052;2022-12-05T10:10:24;5.20;;;4.20;;
23206;SDS011;11773;52.570;13.052;2022-12-05T10:12:57;4.00;;;3.50;;
23206;SDS011;11773;52.570;13.052;2022-12-05T10:15:45;5.43;;;4.30;;
23206;SDS011;11773;52.570;13.052;2022-12-05T10:18:43;3.93;;;3.40;;
23206;SDS011;11773;52.570;13.052;2022-12-05T10:21:22;7.08;;;4.90;;
23206;SDS011;11773;52.570;13.052;2022-12-05T10:26:47;3.50;;;3.17;;
23206;SDS011;11773;52.570;13.052;2022-12-05T10:29:39;3.47;;;2.73;;
23206;SDS011;11773;52.570;13.052;2022-12-05T10:32:27;6.63;;;5.30;;
23206;SDS011;11773;52.570;13.052;2022-12-05T10:35:09;7.03;;;4.57;;
23206;SDS011;11773;52.570;13.052;2022-12-05T10:37:51;4.43;;;3.27;;
23206;SDS011;11773;52.570;13.052;2022-12-05T10:40:21;4.60;;;3.40;;
23206;SDS011;11773;52.570;13.052;2022-12-05T10:42:52;4.67;;;4.17;;
23206;SDS011;11773;52.570;13.052;2022-12-05T10:45:22;7.80;;;5.40;;
23206;SDS011;11773;52.570;13.052;2022-12-05T10:47:53;5.63;;;4.43;;
23206;SDS011;11773;52.570;13.052;2022-12-05T10:50:30;5.00;;;4.00;;
23206;SDS011;11773;52.570;13.052;2022-12-05T10:53:02;3.77;;;3.37;;
23206;SDS011;11773;52.570;13.052;2022-12-05T10:55:35;3.33;;;2.97;;
23206;SDS011;11773;52.570;13.052;2022-12-05T10:58:16;3.47;;;3.03;;
23206;SDS011;11773;52.570;13.052;2022-12-05T11:00:47;3.10;;;2.80;;
23206;SDS011;11773;52.570;13.052;2022-12-05T11:03:28;3.70;;;2.97;;
23206;SDS011;11773;52.570;13.052;2022-12-05T11:06:02;4.57;;;3.63;;
23206;SDS011;11773;52.570;13.052;2022-12-05T11:08:53;4.03;;;3.10;;
23206;SDS011;11773;52.570;13.052;2022-12-05T11:11:28;6.57;;;4.60;;
23206;SDS011;11773;52.570;13.052;2022-12-05T11:14:04;5.53;;;4.60;;
23206;SDS011;11773;52.570;13.052;2022-12-05T11:16:54;4.43;;;4.00;;
23206;SDS011;11773;52.570;13.052;2022-12-05T11:19:37;4.07;;;3.67;;
23206;SDS011;11773;52.570;13.052;2022-12-05T11:22:33;5.60;;;3.93;;
23206;SDS011;11773;52.570;13.052;2022-12-05T11:25:22;3.97;;;3.30;;
23206;SDS011;11773;52.570;13.052;2022-12-05T11:27:49;4.50;;;3.73;;
23206;SDS011;11773;52.570;13.052;2022-12-05T11:30:21;6.20;;;4.70;;
23206;SDS011;11773;52.570;13.052;2022-12-05T11:33:14;5.00;;;4.27;;
23206;SDS011;11773;52.570;13.052;2022-12-05T11:35:54;4.33;;;3.40;;
23206;SDS011;11773;52.570;13.052;2022-12-05T11:38:27;3.47;;;2.93;;
23206;SDS011;11773;52.570;13.052;2022-12-05T11:41:03;5.27;;;3.90;;
23206;SDS011;11773;52.570;13.052;2022-12-05T11:43:47;4.80;;;4.07;;
23206;SDS011;11773;52.570;13.052;2022-12-05T11:55:42;5.53;;;4.20;;
23206;SDS011;11773;52.570;13.052;2022-12-05T11:58:47;5.13;;;3.80;;
23206;SDS011;11773;52.570;13.052;2022-12-05T12:01:31;3.47;;;3.00;;
23206;SDS011;11773;52.570;13.052;2022-12-05T12:04:46;4.17;;;3.20;;
23206;SDS011;11773;52.570;13.052;2022-12-05T12:07:49;4.33;;;3.90;;
23206;SDS011;11773;52.570;13.052;2022-12-05T12:10:42;5.40;;;4.17;;
23206;SDS011;11773;52.570;13.052;2022-12-05T12:13:38;5.43;;;4.37;;
23206;SDS011;11773;52.570;13.052;2022-12-05T12:16:16;6.40;;;4.57;;
23206;SDS011;11773;52.570;13.052;2022-12-05T12:25:19;3.27;;;2.73;;
23206;SDS011;11773;52.570;13.052;2022-12-05T12:30:52;6.37;;;5.00;;
23206;SDS011;11773;52.570;13.052;2022-12-05T12:33:35;6.40;;;4.87;;
23206;SDS011;11773;52.570;13.052;2022-12-05T12:36:24;5.63;;;4.47;;
23206;SDS011;11773;52.570;13.052;2022-12-05T12:39:08;6.03;;;5.03;;
23206;SDS011;11773;52.570;13.052;2022-12-05T12:44:50;5.70;;;4.30;;
23206;SDS011;11773;52.570;13.052;2022-12-05T12:47:27;4.83;;;4.00;;
23206;SDS011;11773;52.570;13.052;2022-12-05T12:55:45;3.73;;;3.23;;
23206;SDS011;11773;52.570;13.052;2022-12-05T13:01:41;5.10;;;3.63;;
23206;SDS011;11773;52.570;13.052;2022-12-05T13:04:34;5.67;;;4.07;;
23206;SDS011;11773;52.570;13.052;2022-12-05T13:07:07;4.00;;;3.40;;
23206;SDS011;11773;52.570;13.052;2022-12-05T13:12:23;5.37;;;4.03;;
23206;SDS011;11773;52.570;13.052;2022-12-05T13:15:04;4.20;;;3.30;;
23206;SDS011;11773;52.570;13.052;2022-12-05T13:17:33;3.33;;;2.80;;
23206;SDS011;11773;52.570;13.052;2022-12-05T13:20:05;4.87;;;3.80;;
23206;SDS011;11773;52.570;13.052;2022-12-05T13:22:47;7.20;;;5.03;;
23206;SDS011;11773;52.570;13.052;2022-12-05T13:25:21;6.20;;;4.40;;
23206;SDS011;11773;52.570;13.052;2022-12-05T13:27:58;4.97;;;4.00;;
23206;SDS011;11773;52.570;13.052;2022-12-05T13:30:34;4.40;;;3.67;;
23206;SDS011;11773;52.570;13.052;2022-12-05T13:33:07;4.43;;;3.00;;
23206;SDS011;11773;52.570;13.052;2022-12-05T13:35:39;3.30;;;2.53;;
23206;SDS011;11773;52.570;13.052;2022-12-05T13:38:31;2.93;;;2.43;;
23206;SDS011;11773;52.570;13.052;2022-12-05T13:41:21;3.33;;;2.93;;
23206;SDS011;11773;52.570;13.052;2022-12-05T13:44:31;3.10;;;2.73;;
23206;SDS011;11773;52.570;13.052;2022-12-05T13:47:03;3.17;;;2.70;;
23206;SDS011;11773;52.570;13.052;2022-12-05T13:55:28;4.17;;;3.23;;
23206;SDS011;11773;52.570;13.052;2022-12-05T14:03:59;3.60;;;3.03;;
23206;SDS011;11773;52.570;13.052;2022-12-05T14:09:29;3.33;;;2.53;;
23206;SDS011;11773;52.570;13.052;2022-12-05T14:14:59;5.40;;;3.80;;
23206;SDS011;11773;52.570;13.052;2022-12-05T14:23:01;4.70;;;3.60;;
23206;SDS011;11773;52.570;13.052;2022-12-05T14:25:35;4.30;;;3.67;;
23206;SDS011;11773;52.570;13.052;2022-12-05T14:31:48;5.10;;;3.33;;
23206;SDS011;11773;52.570;13.052;2022-12-05T14:34:23;3.63;;;2.77;;
23206;SDS011;11773;52.570;13.052;2022-12-05T14:42:18;3.33;;;2.50;;
23206;SDS011;11773;52.570;13.052;2022-12-05T14:45:52;4.30;;;3.40;;
23206;SDS011;11773;52.570;13.052;2022-12-05T14:47:58;4.60;;;3.40;;
23206;SDS011;11773;52.570;13.052;2022-12-05T14:53:32;3.50;;;2.97;;
23206;SDS011;11773;52.570;13.052;2022-12-05T14:55:49;2.97;;;2.40;;
23206;SDS011;11773;52.570;13.052;2022-12-05T15:01:22;4.03;;;3.10;;
23206;SDS011;11773;52.570;13.052;2022-12-05T15:07:03;3.53;;;2.40;;
23206;SDS011;11773;52.570;13.052;2022-12-05T15:09:41;3.17;;;2.57;;
23206;SDS011;11773;52.570;13.052;2022-12-05T15:12:32;3.23;;;2.33;;
23206;SDS011;11773;52.570;13.052;2022-12-05T15:15:18;2.40;;;2.03;;
23206;SDS011;11773;52.570;13.052;2022-12-05T15:21:06;2.47;;;2.27;;
23206;SDS011;11773;52.570;13.052;2022-12-05T15:24:10;3.57;;;2.83;;
23206;SDS011;11773;52.570;13.052;2022-12-05T15:26:55;3.13;;;2.70;;
23206;SDS011;11773;52.570;13.052;2022-12-05T15:34:44;3.57;;;2.50;;
23206;SDS011;11773;52.570;13.052;2022-12-05T15:37:19;2.90;;;2.20;;
23206;SDS011;11773;52.570;13.052;2022-12-05T15:42:41;2.70;;;2.20;;
23206;SDS011;11773;52.570;13.052;2022-12-05T15:45:24;3.00;;;2.60;;
23206;SDS011;11773;52.570;13.052;2022-12-05T15:48:19;3.50;;;2.47;;
23206;SDS011;11773;52.570;13.052;2022-12-05T15:50:39;3.90;;;2.73;;
23206;SDS011;11773;52.570;13.052;2022-12-05T15:53:30;2.63;;;2.40;;
23206;SDS011;11773;52.570;13.052;2022-12-05T15:56:18;2.77;;;2.37;;
23206;SDS011;11773;52.570;13.052;2022-12-05T16:01:53;2.90;;;2.03;;
23206;SDS011;11773;52.570;13.052;2022-12-05T16:04:51;2.90;;;2.47;;
23206;SDS011;11773;52.570;13.052;2022-12-05T16:07:20;2.93;;;2.53;;
23206;SDS011;11773;52.570;13.052;2022-12-05T16:09:57;2.73;;;2.23;;
23206;SDS011;11773;52.570;13.052;2022-12-05T16:12:38;3.47;;;2.70;;
23206;SDS011;11773;52.570;13.052;2022-12-05T16:15:10;3.80;;;3.00;;
23206;SDS011;11773;52.570;13.052;2022-12-05T16:17:46;3.27;;;2.50;;
23206;SDS011;11773;52.570;13.052;2022-12-05T16:20:23;3.47;;;2.93;;
23206;SDS011;11773;52.570;13.052;2022-12-05T16:23:00;3.07;;;2.33;;
23206;SDS011;11773;52.570;13.052;2022-12-05T16:25:33;3.87;;;2.80;;
23206;SDS011;11773;52.570;13.052;2022-12-05T16:30:56;4.00;;;3.20;;
23206;SDS011;11773;52.570;13.052;2022-12-05T16:33:28;3.73;;;2.80;;
23206;SDS011;11773;52.570;13.052;2022-12-05T16:36:08;3.80;;;3.00;;
23206;SDS011;11773;52.570;13.052;2022-12-05T16:38:39;3.80;;;2.87;;
23206;SDS011;11773;52.570;13.052;2022-12-05T16:41:11;3.17;;;2.57;;
23206;SDS011;11773;52.570;13.052;2022-12-05T16:43:44;2.57;;;2.27;;
23206;SDS011;11773;52.570;13.052;2022-12-05T16:51:55;3.47;;;2.77;;
23206;SDS011;11773;52.570;13.052;2022-12-05T16:54:37;3.60;;;2.50;;
23206;SDS011;11773;52.570;13.052;2022-12-05T16:57:08;2.17;;;1.97;;
23206;SDS011;11773;52.570;13.052;2022-12-05T16:59:42;2.90;;;2.30;;
23206;SDS011;11773;52.570;13.052;2022-12-05T17:02:15;2.33;;;2.13;;
23206;SDS011;11773;52.570;13.052;2022-12-05T17:04:46;2.47;;;2.27;;
23206;SDS011;11773;52.570;13.052;2022-12-05T17:07:19;2.47;;;2.07;;
23206;SDS011;11773;52.570;13.052;2022-12-05T17:09:48;3.20;;;2.60;;
23206;SDS011;11773;52.570;13.052;2022-12-05T17:12:23;2.97;;;2.03;;
23206;SDS011;11773;52.570;13.052;2022-12-05T17:14:51;2.83;;;2.23;;
23206;SDS011;11773;52.570;13.052;2022-12-05T17:17:20;3.10;;;2.33;;
23206;SDS011;11773;52.570;13.052;2022-12-05T17:19:50;2.33;;;1.93;;
23206;SDS011;11773;52.570;13.052;2022-12-05T17:22:19;2.60;;;2.00;;
23206;SDS011;11773;52.570;13.052;2022-12-05T17:24:51;3.07;;;2.57;;
23206;SDS011;11773;52.570;13.052;2022-12-05T17:27:23;2.93;;;2.50;;
23206;SDS011;11773;52.570;13.052;2022-12-05T17:29:53;3.50;;;2.87;;
23206;SDS011;11773;52.570;13.052;2022-12-05T17:32:23;4.07;;;2.90;;
23206;SDS011;11773;52.570;13.052;2022-12-05T17:34:53;2.80;;;2.40;;